sensor_id;sensor_type;location;lat;lon;timestamp;pressure;altitude;pressure_sealevel;temperature;humidity
75775;BME280;64505;51.458;7.556;2023-05-28T00:00:59;100154.84;;;12.62;70.04
75775;BME280;64505;51.458;7.556;2023-05-28T00:03:02;100153.44;;;12.59;69.94
75775;BME280;64505;51.458;7.556;2023-05-28T00:05:05;100142.09;;;12.52;70.28
75775;BME280;64505;51.458;7.556;2023-05-28T00:07:06;100148.09;;;12.48;70.19
75775;BME280;64505;51.458;7.556;2023-05-28T00:09:12;100144.47;;;12.42;69.91
75775;BME280;64505;51.458;7.556;2023-05-28T00:11:13;100152.06;;;12.39;70.93
75775;BME280;64505;51.458;7.556;2023-05-28T00:13:15;100140.06;;;12.36;70.84
75775;BME280;64505;51.458;7.556;2023-05-28T00:15:19;100143.41;;;12.31;71.07
75775;BME280;64505;51.458;7.556;2023-05-28T00:17:21;100143.84;;;12.28;71.18
75775;BME280;64505;51.458;7.556;2023-05-28T00:19:23;100140.81;;;12.25;71.06
75775;BME280;64505;51.458;7.556;2023-05-28T00:21:24;100137.00;;;12.21;71.19
75775;BME280;64505;51.458;7.556;2023-05-28T00:23:27;100124.19;;;12.18;70.73
75775;BME280;64505;51.458;7.556;2023-05-28T00:25:29;100133.63;;;12.14;71.16
75775;BME280;64505;51.458;7.556;2023-05-28T00:27:31;100129.59;;;12.11;70.56
75775;BME280;64505;51.458;7.556;2023-05-28T00:29:32;100128.41;;;12.07;71.71
75775;BME280;64505;51.458;7.556;2023-05-28T00:31:34;100129.88;;;12.03;71.96
75775;BME280;64505;51.458;7.556;2023-05-28T00:33:36;100130.31;;;12.00;71.90
75775;BME280;64505;51.458;7.556;2023-05-28T00:35:37;100132.59;;;11.97;72.57
75775;BME280;64505;51.458;7.556;2023-05-28T00:37:39;100137.28;;;11.95;71.29
75775;BME280;64505;51.458;7.556;2023-05-28T00:39:40;100139.00;;;11.89;71.97
75775;BME280;64505;51.458;7.556;2023-05-28T00:41:42;100131.91;;;11.83;72.78
75775;BME280;64505;51.458;7.556;2023-05-28T00:43:44;100129.50;;;11.81;72.67
75775;BME280;64505;51.458;7.556;2023-05-28T00:45:45;100132.59;;;11.78;73.50
75775;BME280;64505;51.458;7.556;2023-05-28T00:47:49;100137.28;;;11.76;73.70
75775;BME280;64505;51.458;7.556;2023-05-28T00:49:52;100136.91;;;11.73;73.01
75775;BME280;64505;51.458;7.556;2023-05-28T00:51:56;100140.19;;;11.68;73.01
75775;BME280;64505;51.458;7.556;2023-05-28T00:53:58;100132.09;;;11.63;73.74
75775;BME280;64505;51.458;7.556;2023-05-28T00:56:00;100138.88;;;11.59;72.89
75775;BME280;64505;51.458;7.556;2023-05-28T00:58:02;100139.06;;;11.58;74.21
75775;BME280;64505;51.458;7.556;2023-05-28T01:00:09;100132.81;;;11.52;74.33
75775;BME280;64505;51.458;7.556;2023-05-28T01:02:11;100136.13;;;11.48;73.73
75775;BME280;64505;51.458;7.556;2023-05-28T01:04:13;100123.31;;;11.45;73.22
75775;BME280;64505;51.458;7.556;2023-05-28T01:06:15;100127.66;;;11.39;73.79
75775;BME280;64505;51.458;7.556;2023-05-28T01:08:16;100126.47;;;11.35;73.45
75775;BME280;64505;51.458;7.556;2023-05-28T01:10:18;100130.78;;;11.29;75.14
75775;BME280;64505;51.458;7.556;2023-05-28T01:12:20;100132.66;;;11.22;75.01
75775;BME280;64505;51.458;7.556;2023-05-28T01:14:23;100130.47;;;11.19;74.12
75775;BME280;64505;51.458;7.556;2023-05-28T01:16:26;100126.63;;;11.15;74.88
75775;BME280;64505;51.458;7.556;2023-05-28T01:18:30;100129.91;;;11.11;74.21
75775;BME280;64505;51.458;7.556;2023-05-28T01:20:33;100130.56;;;11.06;74.50
75775;BME280;64505;51.458;7.556;2023-05-28T01:22:37;100124.53;;;10.99;74.32
75775;BME280;64505;51.458;7.556;2023-05-28T01:24:39;100128.63;;;10.95;74.85
75775;BME280;64505;51.458;7.556;2023-05-28T01:26:41;100124.56;;;10.93;74.71
75775;BME280;64505;51.458;7.556;2023-05-28T01:28:47;100128.28;;;10.85;76.03
75775;BME280;64505;51.458;7.556;2023-05-28T01:30:49;100123.63;;;10.80;75.87
75775;BME280;64505;51.458;7.556;2023-05-28T01:32:51;100128.53;;;10.77;77.15
75775;BME280;64505;51.458;7.556;2023-05-28T01:34:52;100127.34;;;10.73;77.06
75775;BME280;64505;51.458;7.556;2023-05-28T01:36:58;100131.44;;;10.69;76.18
75775;BME280;64505;51.458;7.556;2023-05-28T01:39:02;100132.06;;;10.64;77.10
75775;BME280;64505;51.458;7.556;2023-05-28T01:41:06;100126.38;;;10.61;77.48
75775;BME280;64505;51.458;7.556;2023-05-28T01:43:08;100130.88;;;10.60;75.66
75775;BME280;64505;51.458;7.556;2023-05-28T01:45:12;100128.88;;;10.56;75.55
75775;BME280;64505;51.458;7.556;2023-05-28T01:47:14;100130.75;;;10.49;77.90
75775;BME280;64505;51.458;7.556;2023-05-28T01:49:16;100132.38;;;10.43;77.84
75775;BME280;64505;51.458;7.556;2023-05-28T01:51:22;100133.00;;;10.38;77.86
75775;BME280;64505;51.458;7.556;2023-05-28T01:53:24;100133.66;;;10.34;77.48
75775;BME280;64505;51.458;7.556;2023-05-28T01:55:26;100124.72;;;10.28;79.19
75775;BME280;64505;51.458;7.556;2023-05-28T01:57:51;100122.31;;;10.27;77.48
75775;BME280;64505;51.458;7.556;2023-05-28T01:59:53;100119.66;;;10.27;76.99
75775;BME280;64505;51.458;7.556;2023-05-28T02:01:54;100112.13;;;10.24;76.40
75775;BME280;64505;51.458;7.556;2023-05-28T02:03:57;100119.09;;;10.18;77.36
75775;BME280;64505;51.458;7.556;2023-05-28T02:05:58;100114.41;;;10.14;77.76
75775;BME280;64505;51.458;7.556;2023-05-28T02:08:00;100116.66;;;10.10;77.65
75775;BME280;64505;51.458;7.556;2023-05-28T02:10:02;100117.06;;;10.07;77.72
75775;BME280;64505;51.458;7.556;2023-05-28T02:12:04;100112.63;;;10.01;78.19
75775;BME280;64505;51.458;7.556;2023-05-28T02:14:06;100112.44;;;9.96;79.00
75775;BME280;64505;51.458;7.556;2023-05-28T02:16:11;100111.84;;;9.94;78.27
75775;BME280;64505;51.458;7.556;2023-05-28T02:18:18;100109.63;;;9.91;78.41
75775;BME280;64505;51.458;7.556;2023-05-28T02:20:20;100108.00;;;9.90;77.16
75775;BME280;64505;51.458;7.556;2023-05-28T02:22:22;100106.16;;;9.84;78.59
75775;BME280;64505;51.458;7.556;2023-05-28T02:24:24;100113.50;;;9.82;78.03
75775;BME280;64505;51.458;7.556;2023-05-28T02:26:25;100112.50;;;9.76;77.91
75775;BME280;64505;51.458;7.556;2023-05-28T02:28:27;100112.50;;;9.76;78.15
75775;BME280;64505;51.458;7.556;2023-05-28T02:30:29;100107.84;;;9.72;78.88
75775;BME280;64505;51.458;7.556;2023-05-28T02:32:31;100111.09;;;9.67;78.22
75775;BME280;64505;51.458;7.556;2023-05-28T02:34:32;100101.78;;;9.65;78.32
75775;BME280;64505;51.458;7.556;2023-05-28T02:36:35;100113.94;;;9.59;77.68
75775;BME280;64505;51.458;7.556;2023-05-28T02:38:37;100112.94;;;9.60;77.80
75775;BME280;64505;51.458;7.556;2023-05-28T02:40:39;100113.56;;;9.56;78.32
75775;BME280;64505;51.458;7.556;2023-05-28T02:42:40;100119.66;;;9.56;77.81
75775;BME280;64505;51.458;7.556;2023-05-28T02:44:42;100115.38;;;9.49;79.27
75775;BME280;64505;51.458;7.556;2023-05-28T02:46:44;100113.56;;;9.49;79.62
75775;BME280;64505;51.458;7.556;2023-05-28T02:48:45;100116.44;;;9.48;79.40
75775;BME280;64505;51.458;7.556;2023-05-28T02:50:47;100109.94;;;9.44;79.98
75775;BME280;64505;51.458;7.556;2023-05-28T02:52:49;100116.63;;;9.39;79.52
75775;BME280;64505;51.458;7.556;2023-05-28T02:54:50;100112.16;;;9.33;79.98
75775;BME280;64505;51.458;7.556;2023-05-28T02:56:52;100116.44;;;9.34;79.66
75775;BME280;64505;51.458;7.556;2023-05-28T02:58:56;100119.28;;;9.33;79.94
75775;BME280;64505;51.458;7.556;2023-05-28T03:00:57;100111.97;;;9.28;79.22
75775;BME280;64505;51.458;7.556;2023-05-28T03:02:59;100118.25;;;9.27;78.87
75775;BME280;64505;51.458;7.556;2023-05-28T03:05:01;100116.03;;;9.24;78.78
75775;BME280;64505;51.458;7.556;2023-05-28T03:07:03;100120.09;;;9.20;80.45
75775;BME280;64505;51.458;7.556;2023-05-28T03:09:05;100116.03;;;9.18;79.85
75775;BME280;64505;51.458;7.556;2023-05-28T03:11:07;100118.06;;;9.16;79.85
75775;BME280;64505;51.458;7.556;2023-05-28T03:13:09;100115.00;;;9.12;79.39
75775;BME280;64505;51.458;7.556;2023-05-28T03:15:11;100115.41;;;9.09;80.17
75775;BME280;64505;51.458;7.556;2023-05-28T03:17:12;100119.28;;;9.07;79.00
75775;BME280;64505;51.458;7.556;2023-05-28T03:19:14;100120.50;;;9.04;80.84
75775;BME280;64505;51.458;7.556;2023-05-28T03:21:16;100109.56;;;9.01;79.24
75775;BME280;64505;51.458;7.556;2023-05-28T03:23:18;100115.44;;;9.03;80.45
75775;BME280;64505;51.458;7.556;2023-05-28T03:25:19;100106.69;;;9.02;80.54
75775;BME280;64505;51.458;7.556;2023-05-28T03:27:21;100117.88;;;9.04;80.38
75775;BME280;64505;51.458;7.556;2023-05-28T03:29:23;100117.66;;;8.99;80.27
75775;BME280;64505;51.458;7.556;2023-05-28T03:31:29;100114.38;;;8.97;80.98
75775;BME280;64505;51.458;7.556;2023-05-28T03:33:33;100112.97;;;8.95;81.91
75775;BME280;64505;51.458;7.556;2023-05-28T03:35:35;100115.44;;;8.96;81.24
75775;BME280;64505;51.458;7.556;2023-05-28T03:37:37;100114.63;;;8.96;80.58
75775;BME280;64505;51.458;7.556;2023-05-28T03:39:38;100109.13;;;8.90;82.25
75775;BME280;64505;51.458;7.556;2023-05-28T03:41:40;100108.31;;;8.90;81.36
75775;BME280;64505;51.458;7.556;2023-05-28T03:43:42;100115.44;;;8.89;80.74
75775;BME280;64505;51.458;7.556;2023-05-28T03:45:43;100116.84;;;8.92;80.16
75775;BME280;64505;51.458;7.556;2023-05-28T03:47:45;100109.94;;;8.91;80.58
75775;BME280;64505;51.458;7.556;2023-05-28T03:49:47;100111.34;;;8.87;80.10
75775;BME280;64505;51.458;7.556;2023-05-28T03:51:48;100120.28;;;8.86;81.30
75775;BME280;64505;51.458;7.556;2023-05-28T03:53:50;100118.84;;;8.83;81.00
75775;BME280;64505;51.458;7.556;2023-05-28T03:55:51;100118.66;;;8.85;81.82
75775;BME280;64505;51.458;7.556;2023-05-28T03:57:56;100115.03;;;8.86;81.48
75775;BME280;64505;51.458;7.556;2023-05-28T03:59:58;100116.84;;;8.85;81.33
75775;BME280;64505;51.458;7.556;2023-05-28T04:01:59;100117.66;;;8.86;81.15
75775;BME280;64505;51.458;7.556;2023-05-28T04:04:01;100116.84;;;8.85;80.73
75775;BME280;64505;51.458;7.556;2023-05-28T04:06:04;100113.78;;;8.88;81.92
75775;BME280;64505;51.458;7.556;2023-05-28T04:08:05;100109.53;;;8.87;81.74
75775;BME280;64505;51.458;7.556;2023-05-28T04:10:07;100108.53;;;8.88;82.24
75775;BME280;64505;51.458;7.556;2023-05-28T04:12:09;100100.81;;;8.87;81.89
75775;BME280;64505;51.458;7.556;2023-05-28T04:14:12;100108.31;;;8.90;81.95
75775;BME280;64505;51.458;7.556;2023-05-28T04:16:13;100099.59;;;8.89;81.64
75775;BME280;64505;51.458;7.556;2023-05-28T04:18:15;100105.06;;;8.95;80.90
75775;BME280;64505;51.458;7.556;2023-05-28T04:20:17;100110.56;;;9.00;81.04
75775;BME280;64505;51.458;7.556;2023-05-28T04:22:18;100106.09;;;9.00;80.79
75775;BME280;64505;51.458;7.556;2023-05-28T04:24:20;100112.59;;;9.04;81.05
75775;BME280;64505;51.458;7.556;2023-05-28T04:26:22;100104.28;;;9.07;81.80
75775;BME280;64505;51.458;7.556;2023-05-28T04:28:23;100111.78;;;9.10;81.06
75775;BME280;64505;51.458;7.556;2023-05-28T04:30:29;100109.31;;;9.15;80.66
75775;BME280;64505;51.458;7.556;2023-05-28T04:32:30;100110.97;;;9.16;80.79
75775;BME280;64505;51.458;7.556;2023-05-28T04:34:32;100109.53;;;9.20;79.86
75775;BME280;64505;51.458;7.556;2023-05-28T04:36:35;100109.94;;;9.24;80.08
75775;BME280;64505;51.458;7.556;2023-05-28T04:38:38;100113.78;;;9.28;80.38
75775;BME280;64505;51.458;7.556;2023-05-28T04:40:39;100106.09;;;9.33;80.04
75775;BME280;64505;51.458;7.556;2023-05-28T04:42:41;100110.72;;;9.37;79.61
75775;BME280;64505;51.458;7.556;2023-05-28T04:44:43;100113.19;;;9.39;80.41
75775;BME280;64505;51.458;7.556;2023-05-28T04:46:46;100119.69;;;9.43;80.59
75775;BME280;64505;51.458;7.556;2023-05-28T04:48:48;100118.03;;;9.49;79.52
75775;BME280;64505;51.458;7.556;2023-05-28T04:50:49;100123.94;;;9.51;79.75
75775;BME280;64505;51.458;7.556;2023-05-28T04:52:51;100126.97;;;9.54;80.00
75775;BME280;64505;51.458;7.556;2023-05-28T04:54:53;100129.78;;;9.59;78.89
75775;BME280;64505;51.458;7.556;2023-05-28T04:56:55;100130.19;;;9.63;79.70
75775;BME280;64505;51.458;7.556;2023-05-28T04:58:56;100125.69;;;9.70;81.09
75775;BME280;64505;51.458;7.556;2023-05-28T05:00:58;100125.09;;;9.74;80.93
75775;BME280;64505;51.458;7.556;2023-05-28T05:03:01;100127.94;;;9.79;82.01
75775;BME280;64505;51.458;7.556;2023-05-28T05:05:03;100124.66;;;9.84;81.38
75775;BME280;64505;51.458;7.556;2023-05-28T05:07:05;100126.09;;;9.86;80.08
75775;BME280;64505;51.458;7.556;2023-05-28T05:09:07;100141.91;;;9.93;79.28
75775;BME280;64505;51.458;7.556;2023-05-28T05:11:09;100138.44;;;9.99;78.56
75775;BME280;64505;51.458;7.556;2023-05-28T05:13:11;100136.00;;;10.04;81.51
75775;BME280;64505;51.458;7.556;2023-05-28T05:15:12;100141.25;;;10.11;79.81
75775;BME280;64505;51.458;7.556;2023-05-28T05:17:14;100138.19;;;10.14;79.55
75775;BME280;64505;51.458;7.556;2023-05-28T05:19:16;100139.66;;;10.16;79.75
75775;BME280;64505;51.458;7.556;2023-05-28T05:21:17;100153.41;;;10.25;80.17
75775;BME280;64505;51.458;7.556;2023-05-28T05:23:19;100143.22;;;10.28;80.16
75775;BME280;64505;51.458;7.556;2023-05-28T05:25:21;100144.00;;;10.35;79.51
75775;BME280;64505;51.458;7.556;2023-05-28T05:27:22;100141.34;;;10.42;78.57
75775;BME280;64505;51.458;7.556;2023-05-28T05:29:24;100141.91;;;10.51;80.33
75775;BME280;64505;51.458;7.556;2023-05-28T05:31:26;100146.97;;;10.59;80.47
75775;BME280;64505;51.458;7.556;2023-05-28T05:33:27;100147.94;;;10.64;79.70
75775;BME280;64505;51.458;7.556;2023-05-28T05:35:29;100153.41;;;10.69;80.20
75775;BME280;64505;51.458;7.556;2023-05-28T05:37:31;100145.44;;;10.76;78.99
75775;BME280;64505;51.458;7.556;2023-05-28T05:39:32;100144.38;;;10.83;79.40
75775;BME280;64505;51.458;7.556;2023-05-28T05:41:34;100140.84;;;10.90;79.72
75775;BME280;64505;51.458;7.556;2023-05-28T05:43:36;100139.78;;;10.97;80.49
75775;BME280;64505;51.458;7.556;2023-05-28T05:45:38;100145.66;;;11.06;79.17
75775;BME280;64505;51.458;7.556;2023-05-28T05:47:42;100136.84;;;11.12;79.14
75775;BME280;64505;51.458;7.556;2023-05-28T05:49:44;100148.19;;;11.19;78.90
75775;BME280;64505;51.458;7.556;2023-05-28T05:51:46;100150.75;;;11.25;77.79
75775;BME280;64505;51.458;7.556;2023-05-28T05:53:47;100139.09;;;11.33;77.93
75775;BME280;64505;51.458;7.556;2023-05-28T05:55:49;100147.78;;;11.40;78.69
75775;BME280;64505;51.458;7.556;2023-05-28T05:57:51;100148.53;;;11.47;77.61
75775;BME280;64505;51.458;7.556;2023-05-28T05:59:53;100139.50;;;11.55;77.83
75775;BME280;64505;51.458;7.556;2023-05-28T06:01:56;100144.53;;;11.63;77.42
75775;BME280;64505;51.458;7.556;2023-05-28T06:04:00;100148.56;;;11.72;77.49
75775;BME280;64505;51.458;7.556;2023-05-28T06:06:02;100146.50;;;11.74;78.24
75775;BME280;64505;51.458;7.556;2023-05-28T06:08:04;100148.63;;;11.83;76.87
75775;BME280;64505;51.458;7.556;2023-05-28T06:10:06;100148.13;;;11.93;77.55
75775;BME280;64505;51.458;7.556;2023-05-28T06:12:08;100150.91;;;11.98;77.53
75775;BME280;64505;51.458;7.556;2023-05-28T06:14:10;100154.31;;;12.05;77.53
75775;BME280;64505;51.458;7.556;2023-05-28T06:16:12;100145.03;;;12.14;76.88
75775;BME280;64505;51.458;7.556;2023-05-28T06:18:13;100155.34;;;12.22;76.92
75775;BME280;64505;51.458;7.556;2023-05-28T06:20:15;100148.69;;;12.31;76.98
75775;BME280;64505;51.458;7.556;2023-05-28T06:22:17;100149.22;;;12.40;77.44
75775;BME280;64505;51.458;7.556;2023-05-28T06:24:19;100149.13;;;12.47;76.52
75775;BME280;64505;51.458;7.556;2023-05-28T06:26:20;100158.72;;;12.59;76.25
75775;BME280;64505;51.458;7.556;2023-05-28T06:28:23;100166.84;;;12.64;76.70
75775;BME280;64505;51.458;7.556;2023-05-28T06:30:25;100163.38;;;12.64;75.17
75775;BME280;64505;51.458;7.556;2023-05-28T06:32:27;100153.72;;;12.81;75.42
75775;BME280;64505;51.458;7.556;2023-05-28T06:34:29;100161.75;;;12.93;74.15
75775;BME280;64505;51.458;7.556;2023-05-28T06:36:31;100153.81;;;13.04;74.52
75775;BME280;64505;51.458;7.556;2023-05-28T06:38:33;100153.97;;;13.09;76.53
75775;BME280;64505;51.458;7.556;2023-05-28T06:40:35;100148.91;;;13.19;74.95
75775;BME280;64505;51.458;7.556;2023-05-28T06:42:37;100145.94;;;13.27;74.36
75775;BME280;64505;51.458;7.556;2023-05-28T06:44:39;100148.91;;;13.43;73.15
75775;BME280;64505;51.458;7.556;2023-05-28T06:46:41;100150.22;;;13.52;73.19
75775;BME280;64505;51.458;7.556;2023-05-28T06:48:43;100150.44;;;13.62;73.21
75775;BME280;64505;51.458;7.556;2023-05-28T06:50:44;100145.34;;;13.72;72.11
75775;BME280;64505;51.458;7.556;2023-05-28T06:52:46;100144.53;;;13.83;72.85
75775;BME280;64505;51.458;7.556;2023-05-28T06:54:48;100150.53;;;13.90;70.51
75775;BME280;64505;51.458;7.556;2023-05-28T06:56:49;100159.31;;;14.02;70.78
75775;BME280;64505;51.458;7.556;2023-05-28T06:58:51;100154.41;;;14.11;70.72
75775;BME280;64505;51.458;7.556;2023-05-28T07:00:53;100159.50;;;14.24;72.41
75775;BME280;64505;51.458;7.556;2023-05-28T07:02:54;100163.38;;;14.33;72.61
75775;BME280;64505;51.458;7.556;2023-05-28T07:04:56;100164.56;;;14.37;70.74
75775;BME280;64505;51.458;7.556;2023-05-28T07:06:58;100168.16;;;14.43;70.60
75775;BME280;64505;51.458;7.556;2023-05-28T07:09:00;100159.66;;;14.57;70.99
75775;BME280;64505;51.458;7.556;2023-05-28T07:11:02;100164.34;;;14.67;69.08
75775;BME280;64505;51.458;7.556;2023-05-28T07:13:03;100160.56;;;14.79;70.11
75775;BME280;64505;51.458;7.556;2023-05-28T07:15:05;100160.81;;;14.78;64.98
75775;BME280;64505;51.458;7.556;2023-05-28T07:17:09;100163.44;;;14.90;66.26
75775;BME280;64505;51.458;7.556;2023-05-28T07:19:10;100163.13;;;15.03;65.03
75775;BME280;64505;51.458;7.556;2023-05-28T07:21:12;100169.53;;;15.18;65.02
75775;BME280;64505;51.458;7.556;2023-05-28T07:23:14;100175.50;;;15.25;65.86
75775;BME280;64505;51.458;7.556;2023-05-28T07:25:15;100176.69;;;15.35;66.35
75775;BME280;64505;51.458;7.556;2023-05-28T07:27:17;100170.66;;;15.39;66.86
75775;BME280;64505;51.458;7.556;2023-05-28T07:29:19;100175.81;;;15.46;65.18
75775;BME280;64505;51.458;7.556;2023-05-28T07:31:20;100179.16;;;15.53;63.92
75775;BME280;64505;51.458;7.556;2023-05-28T07:33:22;100178.19;;;15.59;65.10
75775;BME280;64505;51.458;7.556;2023-05-28T07:35:24;100177.44;;;15.63;64.19
75775;BME280;64505;51.458;7.556;2023-05-28T07:37:26;100184.72;;;15.68;63.26
75775;BME280;64505;51.458;7.556;2023-05-28T07:39:27;100182.13;;;15.73;63.64
75775;BME280;64505;51.458;7.556;2023-05-28T07:41:29;100184.94;;;15.83;63.74
75775;BME280;64505;51.458;7.556;2023-05-28T07:43:31;100186.69;;;15.94;62.62
75775;BME280;64505;51.458;7.556;2023-05-28T07:45:33;100180.63;;;15.99;63.60
75775;BME280;64505;51.458;7.556;2023-05-28T07:47:35;100178.84;;;16.04;63.39
75775;BME280;64505;51.458;7.556;2023-05-28T07:49:37;100189.63;;;16.14;63.06
75775;BME280;64505;51.458;7.556;2023-05-28T07:51:39;100189.63;;;16.14;61.19
75775;BME280;64505;51.458;7.556;2023-05-28T07:53:40;100186.84;;;16.26;61.92
75775;BME280;64505;51.458;7.556;2023-05-28T07:55:43;100186.22;;;16.41;61.12
75775;BME280;64505;51.458;7.556;2023-05-28T07:57:44;100186.78;;;16.43;61.24
75775;BME280;64505;51.458;7.556;2023-05-28T07:59:46;100185.19;;;16.42;60.42
75775;BME280;64505;51.458;7.556;2023-05-28T08:01:48;100180.63;;;16.64;61.22
75775;BME280;64505;51.458;7.556;2023-05-28T08:03:50;100184.94;;;16.65;61.34
75775;BME280;64505;51.458;7.556;2023-05-28T08:05:55;100180.19;;;16.72;60.80
75775;BME280;64505;51.458;7.556;2023-05-28T08:07:58;100178.63;;;16.76;60.21
75775;BME280;64505;51.458;7.556;2023-05-28T08:10:00;100182.53;;;16.90;59.99
75775;BME280;64505;51.458;7.556;2023-05-28T08:12:02;100186.91;;;17.01;59.31
75775;BME280;64505;51.458;7.556;2023-05-28T08:14:03;100179.25;;;17.10;59.71
75775;BME280;64505;51.458;7.556;2023-05-28T08:16:05;100181.16;;;17.14;60.33
75775;BME280;64505;51.458;7.556;2023-05-28T08:18:07;100180.59;;;17.12;59.66
75775;BME280;64505;51.458;7.556;2023-05-28T08:20:09;100179.50;;;17.08;58.72
75775;BME280;64505;51.458;7.556;2023-05-28T08:22:11;100184.63;;;17.15;57.47
75775;BME280;64505;51.458;7.556;2023-05-28T08:24:13;100190.22;;;17.13;57.70
75775;BME280;64505;51.458;7.556;2023-05-28T08:26:14;100187.59;;;17.18;57.90
75775;BME280;64505;51.458;7.556;2023-05-28T08:28:17;100192.75;;;17.25;58.91
75775;BME280;64505;51.458;7.556;2023-05-28T08:30:18;100189.63;;;17.38;57.32
75775;BME280;64505;51.458;7.556;2023-05-28T08:32:20;100176.09;;;17.50;57.38
75775;BME280;64505;51.458;7.556;2023-05-28T08:34:22;100174.88;;;17.62;57.89
75775;BME280;64505;51.458;7.556;2023-05-28T08:36:24;100178.41;;;17.73;57.81
75775;BME280;64505;51.458;7.556;2023-05-28T08:38:28;100170.44;;;17.78;57.22
75775;BME280;64505;51.458;7.556;2023-05-28T08:40:31;100165.31;;;17.77;57.07
75775;BME280;64505;51.458;7.556;2023-05-28T08:43:00;100175.31;;;17.91;57.84
75775;BME280;64505;51.458;7.556;2023-05-28T08:45:03;100170.25;;;17.90;56.92
75775;BME280;64505;51.458;7.556;2023-05-28T08:47:04;100171.25;;;17.84;55.93
75775;BME280;64505;51.458;7.556;2023-05-28T08:49:11;100174.44;;;17.81;56.26
75775;BME280;64505;51.458;7.556;2023-05-28T08:51:13;100175.63;;;18.00;56.37
75775;BME280;64505;51.458;7.556;2023-05-28T08:53:20;100164.69;;;18.06;55.41
75775;BME280;64505;51.458;7.556;2023-05-28T08:55:22;100179.41;;;18.09;55.51
75775;BME280;64505;51.458;7.556;2023-05-28T08:57:24;100170.09;;;18.11;55.01
75775;BME280;64505;51.458;7.556;2023-05-28T08:59:27;100171.69;;;18.12;55.22
75775;BME280;64505;51.458;7.556;2023-05-28T09:01:29;100163.72;;;18.28;55.27
75775;BME280;64505;51.458;7.556;2023-05-28T09:03:32;100161.66;;;18.45;55.64
75775;BME280;64505;51.458;7.556;2023-05-28T09:05:37;100162.25;;;18.57;55.65
75775;BME280;64505;51.458;7.556;2023-05-28T09:07:39;100160.38;;;18.67;55.83
75775;BME280;64505;51.458;7.556;2023-05-28T09:09:41;100154.78;;;18.74;54.84
75775;BME280;64505;51.458;7.556;2023-05-28T09:11:43;100144.88;;;18.80;56.16
75775;BME280;64505;51.458;7.556;2023-05-28T09:13:46;100145.44;;;18.92;56.56
75775;BME280;64505;51.458;7.556;2023-05-28T09:15:52;100154.03;;;18.99;53.21
75775;BME280;64505;51.458;7.556;2023-05-28T09:17:55;100151.06;;;19.10;54.52
75775;BME280;64505;51.458;7.556;2023-05-28T09:19:57;100145.16;;;18.93;54.21
75775;BME280;64505;51.458;7.556;2023-05-28T09:22:02;100156.16;;;19.12;53.38
75775;BME280;64505;51.458;7.556;2023-05-28T09:24:04;100157.78;;;19.18;54.02
75775;BME280;64505;51.458;7.556;2023-05-28T09:26:09;100155.66;;;19.35;56.68
75775;BME280;64505;51.458;7.556;2023-05-28T09:28:12;100144.94;;;19.45;55.49
75775;BME280;64505;51.458;7.556;2023-05-28T09:30:15;100152.19;;;19.45;53.00
75775;BME280;64505;51.458;7.556;2023-05-28T09:32:19;100140.06;;;19.57;53.18
75775;BME280;64505;51.458;7.556;2023-05-28T09:34:28;100147.88;;;19.64;54.34
75775;BME280;64505;51.458;7.556;2023-05-28T09:36:30;100144.59;;;19.72;52.47
75775;BME280;64505;51.458;7.556;2023-05-28T09:38:42;100142.19;;;19.81;54.25
75775;BME280;64505;51.458;7.556;2023-05-28T09:40:44;100143.50;;;19.83;52.65
75775;BME280;64505;51.458;7.556;2023-05-28T09:42:46;100142.44;;;19.89;52.08
75775;BME280;64505;51.458;7.556;2023-05-28T09:44:48;100142.41;;;19.99;53.88
75775;BME280;64505;51.458;7.556;2023-05-28T09:46:50;100141.06;;;19.87;53.94
75775;BME280;64505;51.458;7.556;2023-05-28T09:48:51;100132.41;;;20.10;51.22
75775;BME280;64505;51.458;7.556;2023-05-28T09:50:53;100127.00;;;20.25;53.77
75775;BME280;64505;51.458;7.556;2023-05-28T09:52:58;100140.59;;;20.44;55.68
75775;BME280;64505;51.458;7.556;2023-05-28T09:55:01;100136.09;;;20.34;52.45
75775;BME280;64505;51.458;7.556;2023-05-28T09:57:06;100128.88;;;20.20;51.01
75775;BME280;64505;51.458;7.556;2023-05-28T09:59:12;100135.78;;;20.46;52.44
75775;BME280;64505;51.458;7.556;2023-05-28T10:01:15;100137.66;;;20.45;49.71
75775;BME280;64505;51.458;7.556;2023-05-28T10:03:24;100132.84;;;20.42;47.79
75775;BME280;64505;51.458;7.556;2023-05-28T10:05:32;100132.94;;;20.66;50.64
75775;BME280;64505;51.458;7.556;2023-05-28T10:07:35;100132.44;;;20.64;49.59
75775;BME280;64505;51.458;7.556;2023-05-28T10:09:39;100133.16;;;20.80;51.19
75775;BME280;64505;51.458;7.556;2023-05-28T10:11:52;100131.13;;;20.95;48.82
75775;BME280;64505;51.458;7.556;2023-05-28T10:13:57;100124.84;;;21.10;50.00
75775;BME280;64505;51.458;7.556;2023-05-28T10:15:59;100129.47;;;21.04;47.21
75775;BME280;64505;51.458;7.556;2023-05-28T10:18:03;100129.69;;;21.13;49.58
75775;BME280;64505;51.458;7.556;2023-05-28T10:20:05;100128.00;;;21.22;48.70
75775;BME280;64505;51.458;7.556;2023-05-28T10:22:12;100132.22;;;21.33;49.28
75775;BME280;64505;51.458;7.556;2023-05-28T10:24:14;100136.50;;;21.34;46.87
75775;BME280;64505;51.458;7.556;2023-05-28T10:26:18;100133.16;;;21.47;47.10
75775;BME280;64505;51.458;7.556;2023-05-28T10:28:21;100119.38;;;21.54;46.81
75775;BME280;64505;51.458;7.556;2023-05-28T10:30:38;100135.88;;;21.71;48.39
75775;BME280;64505;51.458;7.556;2023-05-28T10:32:40;100133.13;;;21.76;46.57
75775;BME280;64505;51.458;7.556;2023-05-28T10:34:43;100126.44;;;21.74;43.10
75775;BME280;64505;51.458;7.556;2023-05-28T10:36:54;100127.16;;;21.55;41.13
75775;BME280;64505;51.458;7.556;2023-05-28T10:39:04;100131.28;;;21.48;44.08
75775;BME280;64505;51.458;7.556;2023-05-28T10:41:06;100134.22;;;21.46;43.63
75775;BME280;64505;51.458;7.556;2023-05-28T10:45:40;100136.50;;;21.63;43.47